Time;durP1;ratioP1;P1;durP2;ratioP2;P2;SDS_P1;SDS_P2;PMS_P1;PMS_P2;Temp;Humidity;BMP_temperature;BMP_pressure;BME280_temperature;BME280_humidity;BME280_pressure;Samples;Min_cycle;Max_cycle;Signal;HPM_P1;HPM_P2
2022/06/08 00:01:41;;;;;;;15.70;14.10;;;;;;;22.34;62.79;100138.03;5037341;28;20079;-73
2022/06/08 00:04:11;;;;;;;14.38;12.88;;;;;;;22.29;62.77;100141.06;5036231;28;20025;-73
2022/06/08 00:06:36;;;;;;;15.63;14.02;;;;;;;22.31;62.78;100136.47;5048295;28;20025;-72
2022/06/08 00:09:02;;;;;;;15.00;13.43;;;;;;;22.32;62.50;100132.81;5051708;28;20385;-74
2022/06/08 00:11:27;;;;;;;15.68;12.73;;;;;;;22.35;62.30;100134.41;5033968;28;20106;-73
2022/06/08 00:13:53;;;;;;;15.45;13.85;;;;;;;22.33;62.36;100137.19;5050123;28;20029;-73
2022/06/08 00:16:19;;;;;;;15.07;13.57;;;;;;;22.33;62.29;100139.00;5036796;28;20033;-73
2022/06/08 00:18:45;;;;;;;15.27;13.75;;;;;;;22.31;62.43;100132.94;5038480;28;20480;-72
2022/06/08 00:21:13;;;;;;;16.30;13.70;;;;;;;22.30;62.33;100142.78;5035820;28;20033;-72
2022/06/08 00:23:39;;;;;;;16.75;14.98;;;;;;;22.24;62.29;100143.22;5038362;28;20025;-71
2022/06/08 00:26:04;;;;;;;16.27;14.55;;;;;;;22.22;62.18;100150.53;5036780;28;20032;-72
2022/06/08 00:28:31;;;;;;;17.40;15.48;;;;;;;22.13;62.55;100153.84;5019471;28;20116;-70
2022/06/08 00:30:57;;;;;;;17.20;15.32;;;;;;;22.01;62.98;100144.03;5044507;28;20037;-71
2022/06/08 00:33:23;;;;;;;17.75;15.55;;;;;;;22.01;63.04;100146.69;5029256;28;20041;-72
2022/06/08 00:35:48;;;;;;;16.20;14.60;;;;;;;22.00;63.11;100139.66;5037898;28;20041;-72
2022/06/08 00:38:14;;;;;;;16.48;14.50;;;;;;;22.06;62.82;100136.50;5047183;28;20041;-72
2022/06/08 00:40:51;;;;;;;15.68;14.13;;;;;;;22.10;62.68;100143.34;5037712;28;20124;-72
2022/06/08 00:43:16;;;;;;;14.30;12.85;;;;;;;22.10;62.70;100138.88;5032142;28;20029;-71
2022/06/08 00:45:43;;;;;;;16.02;14.43;;;;;;;22.13;62.64;100138.66;5036108;28;20088;-71
2022/06/08 00:48:09;;;;;;;14.93;13.43;;;;;;;22.06;62.96;100141.84;5031148;28;20042;-72
2022/06/08 00:50:40;;;;;;;15.00;13.43;;;;;;;22.07;62.75;100141.78;5035107;28;20559;-70
2022/06/08 00:53:07;;;;;;;14.27;12.63;;;;;;;22.09;62.73;100134.47;5037254;28;20084;-71
2022/06/08 00:55:37;;;;;;;14.27;12.75;;;;;;;22.12;62.72;100134.25;5036959;28;20446;-69
2022/06/08 00:58:10;;;;;;;15.38;13.77;;;;;;;22.08;62.94;100145.28;5040438;28;20031;-68
2022/06/08 01:00:37;;;;;;;14.10;12.63;;;;;;;22.11;62.66;100139.72;5036207;28;20445;-71
2022/06/08 01:03:04;;;;;;;14.60;13.10;;;;;;;21.96;63.46;100139.00;5037488;28;20041;-71
2022/06/08 01:05:39;;;;;;;15.23;13.63;;;;;;;21.86;63.70;100130.81;5035259;28;20508;-70
2022/06/08 01:08:12;;;;;;;16.90;15.10;;;;;;;21.79;64.17;100134.03;5037216;28;20041;-71
2022/06/08 01:10:43;;;;;;;13.90;12.35;;;;;;;21.74;64.20;100129.00;5037195;28;20025;-70
2022/06/08 01:13:08;;;;;;;16.77;15.02;;;;;;;21.81;64.01;100132.94;5030557;28;20029;-71
2022/06/08 01:15:36;;;;;;;16.92;15.13;;;;;;;21.75;64.26;100125.38;5036702;28;20048;-70
2022/06/08 01:18:01;;;;;;;15.50;13.85;;;;;;;21.81;64.15;100134.78;5035538;28;20042;-71
2022/06/08 01:20:27;;;;;;;16.25;14.45;;;;;;;21.83;64.11;100131.03;5050983;28;20033;-70
2022/06/08 01:22:52;;;;;;;15.88;14.18;;;;;;;21.87;64.02;100131.66;5046990;28;20041;-69
2022/06/08 01:25:18;;;;;;;15.80;14.05;;;;;;;21.85;64.18;100125.56;5035546;28;20033;-72
2022/06/08 01:27:59;;;;;;;14.57;13.10;;;;;;;21.90;64.28;100126.06;5028665;28;20029;-69
2022/06/08 01:30:40;;;;;;;14.40;12.82;;;;;;;21.88;63.97;100115.50;5046466;28;20111;-71
2022/06/08 01:33:28;;;;;;;15.70;13.45;;;;;;;21.77;64.64;100118.09;5041140;28;20107;-71
2022/06/08 01:36:10;;;;;;;14.95;13.52;;;;;;;21.68;64.46;100121.44;5048979;28;20399;-71
2022/06/08 01:38:57;;;;;;;17.10;13.70;;;;;;;21.71;64.84;100120.38;5037573;28;20025;-72
2022/06/08 01:41:37;;;;;;;13.30;11.93;;;;;;;21.74;64.37;100120.97;5031719;28;20083;-72
2022/06/08 01:44:41;;;;;;;12.98;11.60;;;;;;;21.87;64.15;100126.31;5045376;28;20052;-71
2022/06/08 01:47:12;;;;;;;;;;;;;;;21.89;64.03;100121.69;5023140;28;20040;-71
2022/06/08 01:49:46;;;;;;;10.10;9.07;;;;;;;21.94;63.60;100124.03;5043425;28;19917;-70
2022/06/08 01:52:15;;;;;;;11.82;10.63;;;;;;;22.02;63.25;100124.31;5031418;28;20041;-71
2022/06/08 01:54:58;;;;;;;10.80;9.70;;;;;;;22.05;63.09;100124.09;5019241;28;20038;-72
2022/06/08 01:57:57;;;;;;;10.43;9.20;;;;;;;22.02;62.65;100118.97;5014261;28;20041;-72
2022/06/08 02:00:38;;;;;;;10.85;9.52;;;;;;;22.04;62.58;100119.72;5031126;28;20032;-72
2022/06/08 02:03:23;;;;;;;10.63;9.52;;;;;;;22.08;62.74;100121.22;5049145;28;20037;-72
2022/06/08 02:06:09;;;;;;;9.88;8.77;;;;;;;22.04;62.72;100117.06;5047527;28;20035;-72
2022/06/08 02:08:51;;;;;;;9.95;8.73;;;;;;;22.03;62.53;100110.84;5038575;28;20041;-72
2022/06/08 02:11:16;;;;;;;10.77;9.75;;;;;;;22.01;62.73;100112.78;5029997;28;20036;-72
2022/06/08 02:13:48;;;;;;;10.23;9.20;;;;;;;21.99;62.76;100120.06;5036512;28;20021;-72
2022/06/08 02:16:24;;;;;;;10.57;9.55;;;;;;;22.02;62.90;100108.28;5032226;28;20037;-72
2022/06/08 02:18:59;;;;;;;10.80;9.50;;;;;;;22.02;62.68;100110.94;5041361;28;20065;-72
2022/06/08 02:21:53;;;;;;;11.25;10.15;;;;;;;22.03;62.56;100099.31;5049800;28;20396;-71
2022/06/08 02:24:22;;;;;;;9.98;8.13;;;;;;;22.01;62.97;100099.41;5030156;28;20040;-72
2022/06/08 02:26:54;;;;;;;10.75;9.70;;;;;;;22.01;62.85;100096.72;5035152;28;20554;-72
2022/06/08 02:29:26;;;;;;;11.02;9.93;;;;;;;22.00;62.73;100088.81;5041019;28;20033;-72
2022/06/08 02:31:57;;;;;;;11.43;10.27;;;;;;;22.02;62.61;100089.56;5036180;28;20784;-71
2022/06/08 02:34:37;;;;;;;11.50;10.37;;;;;;;21.97;63.12;100089.03;5035890;28;20309;-71
2022/06/08 02:37:20;;;;;;;10.35;9.30;;;;;;;22.02;62.83;100094.91;5039704;28;20270;-72
2022/06/08 02:39:58;;;;;;;11.38;10.23;;;;;;;22.03;63.02;100093.97;5036261;28;20041;-72
2022/06/08 02:42:39;;;;;;;11.05;9.95;;;;;;;22.07;62.75;100088.25;5016111;28;20026;-71
2022/06/08 02:45:17;;;;;;;12.15;10.90;;;;;;;22.12;62.63;100087.91;5030705;28;20112;-72
2022/06/08 02:47:45;;;;;;;12.10;10.82;;;;;;;22.11;62.49;100087.06;5020474;28;20036;-72
2022/06/08 02:50:18;;;;;;;11.55;10.35;;;;;;;22.16;62.38;100085.91;5037655;28;20052;-72
2022/06/08 02:52:46;;;;;;;11.23;10.07;;;;;;;22.15;62.44;100082.38;5047508;28;20395;-70
2022/06/08 02:55:36;;;;;;;12.02;10.77;;;;;;;22.11;62.27;100088.88;5049380;28;20048;-71
2022/06/08 02:58:12;;;;;;;9.63;8.63;;;;;;;22.08;62.42;100081.09;5042548;28;20033;-73
2022/06/08 03:00:49;;;;;;;10.15;8.88;;;;;;;22.06;62.18;100091.03;5035129;28;20040;-73
2022/06/08 03:03:16;;;;;;;9.50;8.60;;;;;;;22.11;62.09;100091.56;5029396;28;20488;-73
2022/06/08 03:05:57;;;;;;;9.38;8.38;;;;;;;22.19;61.75;100093.72;5048119;28;20034;-72
2022/06/08 03:08:47;;;;;;;10.63;9.30;;;;;;;22.20;61.80;100082.88;5013159;28;20037;-71
2022/06/08 03:11:14;;;;;;;9.95;8.95;;;;;;;22.17;61.85;100090.28;5023281;28;20055;-71
2022/06/08 03:13:54;;;;;;;10.60;9.60;;;;;;;22.21;61.51;100092.59;5034896;28;20481;-72
2022/06/08 03:16:35;;;;;;;13.75;10.68;;;;;;;22.27;61.59;100092.16;5030364;28;20026;-72
2022/06/08 03:19:01;;;;;;;10.35;9.25;;;;;;;22.30;61.38;100097.28;5033630;28;20476;-71
2022/06/08 03:21:27;;;;;;;9.48;8.43;;;;;;;22.36;61.31;100096.81;5034830;28;20032;-72
2022/06/08 03:23:54;;;;;;;10.65;9.55;;;;;;;22.41;61.08;100098.28;5039862;28;20480;-72
2022/06/08 03:26:22;;;;;;;11.43;10.23;;;;;;;22.42;60.92;100090.13;5037553;28;20041;-72
2022/06/08 03:28:48;;;;;;;13.77;11.95;;;;;;;22.48;61.08;100096.88;5021698;28;20032;-72
2022/06/08 03:31:14;;;;;;;11.00;9.90;;;;;;;22.55;60.86;100104.31;5021453;28;20029;-71
2022/06/08 03:33:39;;;;;;;9.15;8.25;;;;;;;22.51;60.71;100100.16;5036870;28;20117;-71
2022/06/08 03:36:05;;;;;;;8.82;7.55;;;;;;;22.52;60.44;100098.34;5038273;28;20039;-72
2022/06/08 03:38:31;;;;;;;9.93;8.63;;;;;;;22.46;60.80;100096.13;5038307;28;20501;-70
2022/06/08 03:40:56;;;;;;;11.18;9.63;;;;;;;22.51;60.60;100092.13;5018394;28;20061;-72
2022/06/08 03:43:21;;;;;;;9.23;8.32;;;;;;;22.54;60.52;100097.25;5042360;28;20048;-72
2022/06/08 03:45:55;;;;;;;9.65;8.60;;;;;;;22.59;60.27;100088.88;5022090;28;20037;-72
2022/06/08 03:48:21;;;;;;;10.77;8.85;;;;;;;22.60;60.15;100088.75;5041303;28;20041;-72
2022/06/08 03:50:52;;;;;;;9.77;8.80;;;;;;;22.60;60.39;100102.13;5039477;28;20499;-72
2022/06/08 03:53:32;;;;;;;11.48;10.27;;;;;;;22.52;60.58;100103.69;5040913;28;20033;-72
2022/06/08 03:56:01;;;;;;;10.63;9.48;;;;;;;22.41;60.74;100106.31;5038275;28;20056;-71
2022/06/08 03:58:27;;;;;;;9.32;8.38;;;;;;;22.38;60.92;100104.72;5037469;28;20033;-71
2022/06/08 04:00:53;;;;;;;11.27;9.95;;;;;;;22.10;61.35;100100.53;5044283;28;20033;-72
2022/06/08 04:03:19;;;;;;;9.05;8.00;;;;;;;21.99;61.70;100104.03;5041226;28;20037;-73
2022/06/08 04:05:44;;;;;;;10.77;8.57;;;;;;;21.83;62.30;100093.59;5038575;28;20041;-72
2022/06/08 04:08:10;;;;;;;10.35;9.35;;;;;;;21.83;62.23;100092.75;5039587;28;20032;-73
2022/06/08 04:10:36;;;;;;;11.23;9.45;;;;;;;21.89;62.13;100094.94;5020364;28;20037;-72
2022/06/08 04:13:01;;;;;;;9.70;8.70;;;;;;;21.93;62.26;100098.25;5038695;28;20120;-73
2022/06/08 04:15:43;;;;;;;10.32;7.88;;;;;;;21.99;61.92;100097.81;5016916;28;20428;-73
2022/06/08 04:18:10;;;;;;;8.60;7.63;;;;;;;21.93;62.22;100103.59;5035474;28;20034;-72
2022/06/08 04:20:40;;;;;;;9.32;8.43;;;;;;;22.04;61.95;100101.00;5043109;28;20046;-72
2022/06/08 04:23:07;;;;;;;10.20;9.13;;;;;;;22.13;61.68;100103.88;5036495;28;20029;-73
2022/06/08 04:25:33;;;;;;;11.15;9.15;;;;;;;22.18;61.45;100102.69;5025650;28;20033;-73
2022/06/08 04:27:59;;;;;;;11.35;10.15;;;;;;;22.13;61.48;100111.06;5028707;28;20061;-74
2022/06/08 04:30:24;;;;;;;10.57;9.02;;;;;;;21.94;61.99;100106.16;5050922;28;20120;-72
2022/06/08 04:32:50;;;;;;;11.38;9.48;;;;;;;21.92;61.95;100104.59;5034996;28;20044;-73
2022/06/08 04:35:17;;;;;;;10.55;9.48;;;;;;;21.67;62.85;100097.50;5034942;28;20030;-72
2022/06/08 04:37:42;;;;;;;9.00;8.05;;;;;;;21.64;62.88;100098.56;5034672;28;20429;-72
2022/06/08 04:40:11;;;;;;;10.35;9.32;;;;;;;21.53;63.10;100095.81;5048968;28;20037;-72
2022/06/08 04:42:37;;;;;;;12.15;10.18;;;;;;;21.54;62.97;100101.03;5047848;28;20055;-72
2022/06/08 04:45:05;;;;;;;8.95;7.82;;;;;;;21.53;62.89;100091.31;5034189;28;20029;-72
2022/06/08 04:47:31;;;;;;;10.52;7.95;;;;;;;21.65;62.86;100089.56;5032962;28;20034;-72
2022/06/08 04:49:56;;;;;;;10.02;8.60;;;;;;;21.82;62.49;100097.25;5037799;28;20608;-73
2022/06/08 04:52:23;;;;;;;8.57;7.75;;;;;;;21.94;62.21;100095.47;5020159;28;20033;-73
2022/06/08 04:54:49;;;;;;;9.38;8.35;;;;;;;21.67;62.85;100092.16;5016096;28;20029;-72
2022/06/08 04:57:15;;;;;;;10.48;8.88;;;;;;;21.69;62.64;100087.53;5034471;28;20037;-71
2022/06/08 04:59:41;;;;;;;12.07;9.55;;;;;;;21.69;62.57;100088.38;5033801;28;20512;-71
2022/06/08 05:02:07;;;;;;;8.93;7.72;;;;;;;21.82;62.43;100083.00;5033101;28;20029;-71
2022/06/08 05:04:33;;;;;;;8.55;7.65;;;;;;;21.88;62.33;100088.75;5033754;28;20040;-72
2022/06/08 05:06:58;;;;;;;9.48;8.57;;;;;;;21.97;61.95;100089.91;5031248;28;20041;-71
2022/06/08 05:09:24;;;;;;;9.63;8.55;;;;;;;21.95;61.94;100085.66;5014622;28;20025;-71
2022/06/08 05:11:49;;;;;;;8.98;7.95;;;;;;;22.02;61.76;100087.75;5034145;28;20370;-70
2022/06/08 05:14:15;;;;;;;9.27;7.70;;;;;;;22.10;61.52;100082.69;5015985;28;20393;-73
2022/06/08 05:16:40;;;;;;;11.45;8.35;;;;;;;22.10;61.56;100084.47;5040389;28;20033;-73
2022/06/08 05:19:06;;;;;;;11.00;9.82;;;;;;;22.10;61.37;100088.03;5032972;28;20400;-71
2022/06/08 05:21:31;;;;;;;12.57;10.52;;;;;;;22.04;61.39;100084.97;5044534;28;20029;-72
2022/06/08 05:23:56;;;;;;;11.02;9.73;;;;;;;22.12;61.29;100087.91;5031436;28;20040;-73
2022/06/08 05:26:22;;;;;;;8.25;7.38;;;;;;;22.15;61.11;100085.06;5031228;28;20022;-69
2022/06/08 05:28:48;;;;;;;7.70;6.90;;;;;;;22.24;60.89;100081.69;5012876;28;20114;-71
2022/06/08 05:31:13;;;;;;;8.75;7.32;;;;;;;22.35;60.41;100092.44;5033660;28;20033;-72
2022/06/08 05:33:39;;;;;;;8.73;7.80;;;;;;;22.42;60.22;100094.63;5033976;28;20128;-72
2022/06/08 05:36:05;;;;;;;7.85;7.00;;;;;;;22.67;59.65;100089.16;5016415;28;20017;-72
2022/06/08 05:38:31;;;;;;;8.43;6.72;;;;;;;22.89;58.65;100082.97;5000410;28;20053;-72
2022/06/08 05:40:56;;;;;;;10.38;6.53;;;;;;;23.09;58.07;100086.81;5034107;28;20444;-73
2022/06/08 05:43:22;;;;;;;9.13;7.57;;;;;;;23.20;58.05;100092.19;5033971;28;20507;-71
2022/06/08 05:45:48;;;;;;;8.52;7.47;;;;;;;23.25;57.95;100081.94;5033567;28;20112;-71
2022/06/08 05:48:14;;;;;;;9.88;8.80;;;;;;;23.18;57.90;100093.25;5033958;28;20100;-72
2022/06/08 05:50:42;;;;;;;9.52;8.52;;;;;;;23.00;58.19;100087.53;5033238;28;20492;-72
2022/06/08 05:53:07;;;;;;;9.30;8.07;;;;;;;22.98;58.19;100100.19;5034230;28;20033;-72
2022/06/08 05:55:33;;;;;;;11.52;9.50;;;;;;;22.88;58.56;100095.50;5034037;28;20033;-72
2022/06/08 05:57:59;;;;;;;8.98;6.90;;;;;;;22.87;58.83;100090.28;5034001;28;20044;-71
2022/06/08 06:00:31;;;;;;;7.40;6.60;;;;;;;22.98;58.29;100084.09;5034054;28;20033;-71
2022/06/08 06:02:58;;;;;;;11.13;8.57;;;;;;;22.90;58.19;100086.50;5030854;28;20041;-71
2022/06/08 06:05:30;;;;;;;7.72;6.97;;;;;;;22.99;58.27;100085.84;5033780;28;20043;-71
2022/06/08 06:07:57;;;;;;;6.78;6.07;;;;;;;23.08;57.83;100087.78;5032229;28;20117;-68
2022/06/08 06:10:24;;;;;;;9.18;8.18;;;;;;;23.01;57.80;100091.91;5031099;28;20112;-71
2022/06/08 06:12:54;;;;;;;8.00;6.85;;;;;;;23.26;57.21;100090.84;5033085;28;20033;-73
2022/06/08 06:15:21;;;;;;;7.95;7.15;;;;;;;23.45;56.89;100095.59;5032577;28;20042;-71
2022/06/08 06:17:47;;;;;;;7.30;6.22;;;;;;;23.42;56.79;100080.63;5029896;28;20488;-73
2022/06/08 06:20:12;;;;;;;8.15;6.63;;;;;;;23.67;56.22;100090.25;5029212;28;20033;-72
2022/06/08 06:22:38;;;;;;;7.93;6.35;;;;;;;24.02;55.59;100094.59;5015168;28;20064;-72
2022/06/08 06:25:05;;;;;;;8.63;6.82;;;;;;;24.31;54.83;100089.47;4999248;28;20044;-72
2022/06/08 06:27:31;;;;;;;9.23;7.13;;;;;;;24.50;54.26;100088.81;5008323;28;20037;-72
2022/06/08 06:29:57;;;;;;;6.32;5.70;;;;;;;24.80;53.80;100091.56;5015123;28;20040;-72
2022/06/08 06:32:29;;;;;;;7.38;6.47;;;;;;;25.02;52.22;100090.59;5015138;28;20116;-73
2022/06/08 06:34:56;;;;;;;7.23;6.20;;;;;;;25.30;52.38;100085.53;5032361;28;20029;-72
2022/06/08 06:37:22;;;;;;;9.25;6.30;;;;;;;25.59;51.67;100088.31;5031512;28;20301;-72
2022/06/08 06:39:47;;;;;;;8.68;6.72;;;;;;;25.84;51.13;100092.38;5031933;28;20033;-74
2022/06/08 06:42:29;;;;;;;8.43;6.47;;;;;;;26.04;49.92;100080.66;5033287;28;20430;-73
2022/06/08 06:44:54;;;;;;;6.97;6.17;;;;;;;26.23;49.96;100081.69;5026297;28;20038;-73
2022/06/08 06:47:20;;;;;;;7.05;5.90;;;;;;;26.38;49.50;100084.81;5033508;28;20037;-73
2022/06/08 06:49:46;;;;;;;6.80;6.05;;;;;;;26.50;49.36;100089.09;5033007;28;20057;-72
2022/06/08 06:52:14;;;;;;;7.85;6.72;;;;;;;26.63;48.93;100076.16;5029298;28;20037;-73
2022/06/08 06:54:41;;;;;;;7.75;6.95;;;;;;;26.71;48.34;100081.69;5033378;28;20105;-72
2022/06/08 06:57:06;;;;;;;6.97;5.63;;;;;;;26.79;48.02;100078.28;5046816;28;20037;-71
2022/06/08 06:59:32;;;;;;;6.47;5.78;;;;;;;26.86;47.86;100076.69;5018470;28;20038;-72
2022/06/08 07:01:58;;;;;;;6.22;5.50;;;;;;;26.97;47.51;100067.56;5037286;28;20129;-72
2022/06/08 07:04:24;;;;;;;7.45;6.18;;;;;;;26.94;47.44;100057.94;5038409;28;20049;-71
2022/06/08 07:06:49;;;;;;;7.10;6.40;;;;;;;26.95;47.26;100056.94;5017885;28;20044;-72
2022/06/08 07:09:14;;;;;;;7.40;5.95;;;;;;;26.94;47.56;100063.34;5019641;28;20124;-73
2022/06/08 07:11:40;;;;;;;7.30;5.68;;;;;;;27.06;47.34;100061.31;5036895;28;20025;-73
2022/06/08 07:14:12;;;;;;;6.85;5.88;;;;;;;27.07;46.68;100072.94;5036412;28;20033;-72
2022/06/08 07:16:38;;;;;;;5.82;5.22;;;;;;;27.05;46.83;100074.94;5036445;28;20112;-74
2022/06/08 07:19:05;;;;;;;6.30;5.65;;;;;;;27.11;46.77;100083.31;5016898;28;20041;-73
2022/06/08 07:21:31;;;;;;;6.97;6.28;;;;;;;27.24;46.51;100081.13;5008827;28;20509;-73
2022/06/08 07:23:56;;;;;;;6.20;5.60;;;;;;;27.27;46.56;100082.72;5017921;28;20041;-73
2022/06/08 07:26:25;;;;;;;6.22;4.88;;;;;;;27.36;46.27;100080.97;5044500;28;20396;-72
2022/06/08 07:28:55;;;;;;;6.50;5.90;;;;;;;27.47;45.95;100080.78;5017913;28;20099;-73
2022/06/08 07:31:22;;;;;;;7.72;6.90;;;;;;;27.51;46.14;100087.56;5027397;28;20033;-73
2022/06/08 07:33:48;;;;;;;7.20;6.35;;;;;;;27.60;46.14;100080.44;5012917;28;20069;-71
2022/06/08 07:36:14;;;;;;;7.07;6.38;;;;;;;27.72;45.88;100088.16;4994108;28;20033;-73
2022/06/08 07:38:40;;;;;;;7.90;5.82;;;;;;;27.83;45.54;100079.06;5034626;28;20044;-72
2022/06/08 07:41:06;;;;;;;6.93;6.25;;;;;;;27.89;45.31;100083.00;5017637;28;20392;-72
2022/06/08 07:43:32;;;;;;;6.22;5.60;;;;;;;27.89;45.37;100083.00;5034855;28;20037;-73
2022/06/08 07:45:57;;;;;;;7.57;6.65;;;;;;;27.91;44.63;100081.84;5020645;28;20037;-72
2022/06/08 07:51:08;;;;;;;6.43;5.10;;;;;;;28.28;43.78;100077.31;5019723;28;20080;-72
2022/06/08 07:53:34;;;;;;;4.93;4.45;;;;;;;28.52;43.37;100082.97;5035459;28;20079;-72
2022/06/08 07:56:00;;;;;;;5.47;4.97;;;;;;;28.71;42.48;100077.38;5033899;28;20037;-67
2022/06/08 07:58:25;;;;;;;5.60;4.95;;;;;;;28.75;42.24;100079.78;5035020;28;20033;-72
2022/06/08 08:00:51;;;;;;;4.90;4.47;;;;;;;28.95;42.25;100071.28;5014788;28;20048;-71
2022/06/08 08:03:17;;;;;;;5.32;4.82;;;;;;;29.21;41.48;100076.72;5012887;28;20132;-72
2022/06/08 08:05:45;;;;;;;6.00;4.85;;;;;;;29.16;41.32;100073.63;5017152;28;20059;-73
2022/06/08 08:08:12;;;;;;;4.95;4.45;;;;;;;29.23;41.33;100073.00;5033825;28;20026;-72
2022/06/08 08:10:37;;;;;;;5.53;5.03;;;;;;;29.33;41.38;100079.16;5034103;28;20087;-70
2022/06/08 08:13:03;;;;;;;7.78;4.70;;;;;;;29.39;40.78;100071.22;5034757;28;20453;-72
2022/06/08 08:15:29;;;;;;;4.95;4.40;;;;;;;29.50;40.19;100086.34;5033359;28;20400;-69
2022/06/08 08:17:56;;;;;;;6.05;4.15;;;;;;;29.43;40.25;100071.75;5015614;28;20400;-72
2022/06/08 08:20:24;;;;;;;4.90;4.38;;;;;;;29.38;39.94;100071.41;5033753;28;20112;-72
2022/06/08 08:22:50;;;;;;;5.55;4.30;;;;;;;29.29;40.09;100072.38;5034583;28;20033;-71
2022/06/08 08:25:16;;;;;;;4.13;3.80;;;;;;;29.19;40.00;100081.44;5034643;28;20373;-72
2022/06/08 08:27:43;;;;;;;3.97;3.30;;;;;;;29.16;39.52;100068.22;5009549;28;20042;-71
2022/06/08 08:30:12;;;;;;;4.45;4.05;;;;;;;29.16;39.78;100079.03;5014568;28;20038;-71
2022/06/08 08:32:37;;;;;;;4.00;3.47;;;;;;;29.00;39.27;100083.50;5018738;28;20041;-69
2022/06/08 08:35:04;;;;;;;4.38;3.22;;;;;;;28.46;39.34;100081.75;5016980;28;20041;-73
2022/06/08 08:37:32;;;;;;;4.20;3.05;;;;;;;28.38;39.27;100084.38;5033871;28;20108;-73
2022/06/08 08:40:00;;;;;;;3.05;2.75;;;;;;;28.40;39.52;100086.91;5027469;28;20129;-73
2022/06/08 08:42:26;;;;;;;3.88;3.25;;;;;;;28.61;39.40;100081.19;5034323;28;20465;-68
2022/06/08 08:44:56;;;;;;;2.95;2.72;;;;;;;28.66;39.35;100093.22;5032150;28;20037;-73
2022/06/08 08:47:28;;;;;;;3.20;2.90;;;;;;;28.62;39.19;100091.84;5017353;28;20436;-74
2022/06/08 08:49:58;;;;;;;3.60;2.90;;;;;;;28.52;38.50;100080.25;5035221;28;20049;-72
2022/06/08 08:52:46;;;;;;;3.60;3.25;;;;;;;28.37;40.04;100084.53;5033021;28;20029;-72
2022/06/08 08:55:23;;;;;;;2.90;2.63;;;;;;;28.20;40.01;100092.44;5028392;28;20038;-73
2022/06/08 08:58:01;;;;;;;3.50;3.20;;;;;;;28.31;40.31;100082.41;5035341;28;20392;-73
2022/06/08 09:00:56;;;;;;;3.72;3.33;;;;;;;28.42;40.21;100084.91;5034197;28;20469;-70
2022/06/08 09:03:24;;;;;;;3.50;3.20;;;;;;;28.46;40.57;100086.31;4997505;28;20026;-72
2022/06/08 09:05:54;;;;;;;4.15;3.33;;;;;;;28.60;40.65;100091.13;5013544;28;20038;-72
2022/06/08 09:08:22;;;;;;;7.03;3.78;;;;;;;28.54;40.94;100094.47;5033209;28;20033;-72
2022/06/08 09:10:48;;;;;;;4.10;3.70;;;;;;;28.64;40.38;100084.41;5034106;28;20049;-71
2022/06/08 09:13:21;;;;;;;6.45;4.05;;;;;;;28.73;40.52;100086.19;5017349;28;20116;-71
2022/06/08 09:15:56;;;;;;;4.97;3.40;;;;;;;29.06;39.59;100083.75;5033968;28;20480;-72
2022/06/08 09:18:37;;;;;;;5.22;4.75;;;;;;;29.15;39.57;100071.09;5033841;28;20116;-72
2022/06/08 09:21:21;;;;;;;5.28;4.32;;;;;;;29.26;39.28;100067.28;5027560;28;20674;-71
2022/06/08 09:23:50;;;;;;;5.07;4.30;;;;;;;29.29;40.06;100075.09;5032761;28;20040;-71
2022/06/08 09:26:27;;;;;;;4.80;4.30;;;;;;;29.53;39.82;100060.81;5034050;28;20120;-72
2022/06/08 09:29:13;;;;;;;5.10;4.60;;;;;;;29.88;38.61;100067.88;5034631;28;20030;-72
2022/06/08 09:31:40;;;;;;;4.43;4.03;;;;;;;30.14;39.10;100070.47;5034699;28;20088;-72
2022/06/08 09:34:21;;;;;;;4.18;3.78;;;;;;;30.39;38.18;100065.97;5016833;28;20083;-72
2022/06/08 09:37:14;;;;;;;6.10;5.07;;;;;;;30.15;37.72;100073.03;5016201;28;20032;-72
2022/06/08 09:39:44;;;;;;;;;;;;;;;30.32;37.40;100076.66;5033444;28;20439;-72
2022/06/08 09:42:47;;;;;;;3.88;3.58;;;;;;;30.52;37.84;100060.91;5016818;28;19913;-72
2022/06/08 09:45:40;;;;;;;5.35;3.85;;;;;;;30.70;37.11;100062.56;5034124;28;20057;-72
2022/06/08 09:51:25;;;;;;;4.07;3.70;;;;;;;30.92;35.77;100070.00;5025270;28;20060;-73
2022/06/08 09:54:02;;;;;;;4.53;3.45;;;;;;;31.29;35.85;100057.72;5014182;28;20034;-72
2022/06/08 09:57:02;;;;;;;5.35;4.15;;;;;;;31.33;35.70;100059.94;5022965;28;20034;-72
2022/06/08 09:59:51;;;;;;;4.88;4.38;;;;;;;31.60;36.74;100066.78;5033558;28;20036;-72
2022/06/08 10:02:28;;;;;;;5.60;3.75;;;;;;;31.71;36.25;100061.97;4987357;28;20045;-72
2022/06/08 10:05:35;;;;;;;4.25;3.50;;;;;;;31.85;33.69;100058.53;5033842;28;20038;-72
2022/06/08 10:08:22;;;;;;;3.65;3.22;;;;;;;32.14;33.87;100063.28;5033348;28;20052;-72
2022/06/08 10:11:34;;;;;;;4.05;3.40;;;;;;;32.24;34.06;100050.31;5016091;28;20068;-72
2022/06/08 10:14:02;;;;;;;4.32;3.47;;;;;;;32.61;34.31;100044.06;5033319;28;20052;-72
2022/06/08 10:16:33;;;;;;;3.90;3.42;;;;;;;32.73;34.21;100046.34;5015584;28;20116;-73
2022/06/08 10:19:07;;;;;;;3.97;3.60;;;;;;;32.87;33.94;100042.78;5033312;28;20029;-72
2022/06/08 10:21:39;;;;;;;3.70;3.40;;;;;;;32.86;33.07;100039.22;5015745;28;20156;-72
2022/06/08 10:24:29;;;;;;;3.97;3.00;;;;;;;32.92;33.34;100044.97;5016070;28;20030;-73
2022/06/08 10:27:10;;;;;;;3.80;3.40;;;;;;;32.57;32.48;100036.47;5033163;28;20026;-72
2022/06/08 10:29:51;;;;;;;3.78;3.38;;;;;;;32.43;33.15;100040.81;5033485;28;20029;-73
2022/06/08 10:32:24;;;;;;;4.25;3.25;;;;;;;32.42;33.49;100039.13;5029100;28;20061;-69
2022/06/08 10:34:54;;;;;;;3.28;3.00;;;;;;;32.50;34.17;100041.78;5031143;28;20037;-73
2022/06/08 10:37:38;;;;;;;4.00;3.40;;;;;;;32.64;33.60;100040.13;5029815;28;20034;-72
2022/06/08 10:40:13;;;;;;;2.97;2.67;;;;;;;32.71;33.19;100037.50;5028129;28;20033;-73
2022/06/08 10:42:46;;;;;;;3.17;2.85;;;;;;;32.80;33.22;100034.53;5013406;28;20030;-72
2022/06/08 10:45:20;;;;;;;4.95;3.13;;;;;;;32.96;32.41;100028.13;5017641;28;20030;-72
2022/06/08 10:47:57;;;;;;;4.72;3.85;;;;;;;33.13;31.54;100036.09;5023641;28;20440;-73
2022/06/08 10:50:42;;;;;;;3.03;2.80;;;;;;;33.09;32.16;100022.84;4999243;28;20761;-73
2022/06/08 10:56:26;;;;;;;3.13;2.72;;;;;;;33.10;31.17;100026.41;5029951;28;20491;-72
2022/06/08 10:59:13;;;;;;;6.93;3.08;;;;;;;33.03;31.37;100026.31;5013446;28;20030;-72
2022/06/08 11:01:53;;;;;;;4.07;2.85;;;;;;;33.24;31.21;100022.00;5013260;28;20033;-72
2022/06/08 11:04:32;;;;;;;3.63;3.00;;;;;;;33.24;31.10;100025.56;4995840;28;20061;-72
2022/06/08 11:07:02;;;;;;;3.80;3.17;;;;;;;33.21;32.05;100022.38;5013744;28;20092;-72
2022/06/08 11:09:33;;;;;;;4.40;3.22;;;;;;;33.21;32.05;100016.94;5013131;28;20032;-72
2022/06/08 11:12:11;;;;;;;4.40;3.05;;;;;;;33.09;31.63;100017.41;4995713;28;20524;-72
2022/06/08 11:14:48;;;;;;;3.25;2.78;;;;;;;33.14;31.71;100016.84;5028504;28;20037;-71
2022/06/08 11:17:22;;;;;;;4.60;2.83;;;;;;;33.09;32.30;100019.28;5033922;28;20033;-72
2022/06/08 11:19:50;;;;;;;2.92;2.58;;;;;;;33.20;31.85;100009.81;5015515;28;20041;-73
2022/06/08 11:22:23;;;;;;;4.28;2.60;;;;;;;33.32;31.60;100009.13;5033070;28;20101;-73
2022/06/08 11:24:52;;;;;;;3.47;3.00;;;;;;;33.37;31.21;100011.28;5033162;28;20116;-73
2022/06/08 11:27:33;;;;;;;3.00;2.70;;;;;;;33.45;30.66;100005.75;5002294;28;20044;-73
2022/06/08 11:30:00;;;;;;;3.63;2.60;;;;;;;33.40;31.13;100005.47;5013285;28;20037;-74
2022/06/08 11:32:34;;;;;;;4.28;2.63;;;;;;;33.40;29.69;100015.53;4995439;28;20026;-72
2022/06/08 11:35:49;;;;;;;2.78;2.58;;;;;;;33.47;29.60;100006.41;5013242;28;20029;-73
2022/06/08 11:38:40;;;;;;;3.05;2.53;;;;;;;33.55;30.04;100009.03;4933498;29;20365;-74
2022/06/08 11:41:37;;;;;;;2.63;2.42;;;;;;;33.52;28.95;100012.13;5028743;28;20499;-70
2022/06/08 11:44:18;;;;;;;3.67;2.35;;;;;;;33.40;28.84;100005.47;5011040;28;20447;-71
2022/06/08 11:46:50;;;;;;;4.55;3.08;;;;;;;33.44;29.91;100005.94;5016746;28;20186;-72
2022/06/08 11:49:38;;;;;;;3.28;2.70;;;;;;;33.23;29.30;100006.69;5016576;28;20034;-71
2022/06/08 11:52:29;;;;;;;3.95;2.05;;;;;;;33.14;29.34;100008.69;5034587;28;20128;-73